sensor_id;sensor_type;location;lat;lon;timestamp;P1;durP1;ratioP1;P2;durP2;ratioP2
22223;SDS011;11281;52.194;21.006;2023-04-15T00:04:17;8.25;;;5.85;;
22223;SDS011;11281;52.194;21.006;2023-04-15T00:08:40;9.13;;;6.18;;
22223;SDS011;11281;52.194;21.006;2023-04-15T00:13:02;10.52;;;6.65;;
22223;SDS011;11281;52.194;21.006;2023-04-15T00:17:24;11.38;;;6.85;;
22223;SDS011;11281;52.194;21.006;2023-04-15T00:21:46;9.57;;;6.13;;
22223;SDS011;11281;52.194;21.006;2023-04-15T00:26:08;9.23;;;6.28;;
22223;SDS011;11281;52.194;21.006;2023-04-15T00:30:30;9.30;;;6.85;;
22223;SDS011;11281;52.194;21.006;2023-04-15T00:34:51;8.10;;;5.68;;
22223;SDS011;11281;52.194;21.006;2023-04-15T00:39:13;8.15;;;5.65;;
22223;SDS011;11281;52.194;21.006;2023-04-15T00:43:36;8.07;;;5.30;;
22223;SDS011;11281;52.194;21.006;2023-04-15T00:47:58;8.40;;;6.50;;
22223;SDS011;11281;52.194;21.006;2023-04-15T00:52:20;9.73;;;6.03;;
22223;SDS011;11281;52.194;21.006;2023-04-15T00:56:42;8.77;;;5.82;;
22223;SDS011;11281;52.194;21.006;2023-04-15T01:01:03;7.72;;;5.60;;
22223;SDS011;11281;52.194;21.006;2023-04-15T01:05:25;7.53;;;6.22;;
22223;SDS011;11281;52.194;21.006;2023-04-15T01:09:48;8.52;;;5.90;;
22223;SDS011;11281;52.194;21.006;2023-04-15T01:14:10;10.40;;;6.13;;
22223;SDS011;11281;52.194;21.006;2023-04-15T01:18:31;8.30;;;5.88;;
22223;SDS011;11281;52.194;21.006;2023-04-15T01:22:54;9.73;;;6.13;;
22223;SDS011;11281;52.194;21.006;2023-04-15T01:27:16;10.13;;;6.32;;
22223;SDS011;11281;52.194;21.006;2023-04-15T01:31:38;10.35;;;5.90;;
22223;SDS011;11281;52.194;21.006;2023-04-15T01:35:59;12.30;;;6.38;;
22223;SDS011;11281;52.194;21.006;2023-04-15T01:40:21;13.90;;;6.95;;
22223;SDS011;11281;52.194;21.006;2023-04-15T01:44:43;10.90;;;6.22;;
22223;SDS011;11281;52.194;21.006;2023-04-15T01:49:05;10.73;;;7.40;;
22223;SDS011;11281;52.194;21.006;2023-04-15T01:53:26;10.50;;;6.45;;
22223;SDS011;11281;52.194;21.006;2023-04-15T01:57:48;9.75;;;6.68;;
22223;SDS011;11281;52.194;21.006;2023-04-15T02:02:10;10.07;;;6.82;;
22223;SDS011;11281;52.194;21.006;2023-04-15T02:06:32;9.93;;;7.00;;
22223;SDS011;11281;52.194;21.006;2023-04-15T02:10:54;11.57;;;6.55;;
22223;SDS011;11281;52.194;21.006;2023-04-15T02:15:15;10.02;;;6.78;;
22223;SDS011;11281;52.194;21.006;2023-04-15T02:19:37;9.60;;;6.50;;
22223;SDS011;11281;52.194;21.006;2023-04-15T02:24:00;9.68;;;6.88;;
22223;SDS011;11281;52.194;21.006;2023-04-15T02:28:22;9.02;;;6.57;;
22223;SDS011;11281;52.194;21.006;2023-04-15T02:32:44;8.43;;;6.35;;
22223;SDS011;11281;52.194;21.006;2023-04-15T02:37:06;10.57;;;6.65;;
22223;SDS011;11281;52.194;21.006;2023-04-15T02:41:28;10.77;;;7.35;;
22223;SDS011;11281;52.194;21.006;2023-04-15T02:45:50;12.90;;;7.55;;
22223;SDS011;11281;52.194;21.006;2023-04-15T02:50:13;8.75;;;6.60;;
22223;SDS011;11281;52.194;21.006;2023-04-15T02:54:35;10.18;;;7.13;;
22223;SDS011;11281;52.194;21.006;2023-04-15T02:58:56;10.10;;;6.47;;
22223;SDS011;11281;52.194;21.006;2023-04-15T03:03:18;9.75;;;7.10;;
22223;SDS011;11281;52.194;21.006;2023-04-15T03:07:40;7.75;;;6.63;;
22223;SDS011;11281;52.194;21.006;2023-04-15T03:12:02;12.45;;;7.65;;
22223;SDS011;11281;52.194;21.006;2023-04-15T03:16:24;11.00;;;7.15;;
22223;SDS011;11281;52.194;21.006;2023-04-15T03:20:46;9.65;;;6.60;;
22223;SDS011;11281;52.194;21.006;2023-04-15T03:25:08;11.68;;;7.18;;
22223;SDS011;11281;52.194;21.006;2023-04-15T03:29:29;11.00;;;7.40;;
22223;SDS011;11281;52.194;21.006;2023-04-15T03:33:51;9.75;;;7.13;;
22223;SDS011;11281;52.194;21.006;2023-04-15T03:38:13;11.95;;;7.07;;
22223;SDS011;11281;52.194;21.006;2023-04-15T03:42:35;10.50;;;6.82;;
22223;SDS011;11281;52.194;21.006;2023-04-15T03:46:57;11.18;;;7.95;;
22223;SDS011;11281;52.194;21.006;2023-04-15T03:51:18;11.73;;;7.50;;
22223;SDS011;11281;52.194;21.006;2023-04-15T03:55:40;10.88;;;7.50;;
22223;SDS011;11281;52.194;21.006;2023-04-15T04:00:03;14.23;;;7.43;;
22223;SDS011;11281;52.194;21.006;2023-04-15T04:04:26;12.45;;;6.97;;
22223;SDS011;11281;52.194;21.006;2023-04-15T04:08:48;10.70;;;7.13;;
22223;SDS011;11281;52.194;21.006;2023-04-15T04:13:09;14.63;;;7.35;;
22223;SDS011;11281;52.194;21.006;2023-04-15T04:17:31;10.70;;;7.35;;
22223;SDS011;11281;52.194;21.006;2023-04-15T04:21:53;11.15;;;6.80;;
22223;SDS011;11281;52.194;21.006;2023-04-15T04:26:15;12.07;;;6.97;;
22223;SDS011;11281;52.194;21.006;2023-04-15T04:30:36;10.65;;;7.07;;
22223;SDS011;11281;52.194;21.006;2023-04-15T04:34:59;10.88;;;7.20;;
22223;SDS011;11281;52.194;21.006;2023-04-15T04:39:20;12.77;;;6.65;;
22223;SDS011;11281;52.194;21.006;2023-04-15T04:43:42;8.00;;;6.13;;
22223;SDS011;11281;52.194;21.006;2023-04-15T04:48:04;10.05;;;7.07;;
22223;SDS011;11281;52.194;21.006;2023-04-15T04:52:28;10.93;;;6.80;;
22223;SDS011;11281;52.194;21.006;2023-04-15T04:56:50;11.98;;;7.18;;
22223;SDS011;11281;52.194;21.006;2023-04-15T05:01:11;10.63;;;6.65;;
22223;SDS011;11281;52.194;21.006;2023-04-15T05:05:33;9.05;;;6.75;;
22223;SDS011;11281;52.194;21.006;2023-04-15T05:09:56;13.15;;;8.05;;
22223;SDS011;11281;52.194;21.006;2023-04-15T05:14:18;12.27;;;7.28;;
22223;SDS011;11281;52.194;21.006;2023-04-15T05:18:40;14.88;;;7.35;;
22223;SDS011;11281;52.194;21.006;2023-04-15T05:23:01;10.32;;;7.40;;
22223;SDS011;11281;52.194;21.006;2023-04-15T05:27:23;10.70;;;6.70;;
22223;SDS011;11281;52.194;21.006;2023-04-15T05:31:45;9.52;;;7.47;;
22223;SDS011;11281;52.194;21.006;2023-04-15T05:36:07;12.18;;;7.18;;
22223;SDS011;11281;52.194;21.006;2023-04-15T05:40:29;11.35;;;7.03;;
22223;SDS011;11281;52.194;21.006;2023-04-15T05:44:51;13.20;;;7.90;;
22223;SDS011;11281;52.194;21.006;2023-04-15T05:49:13;9.90;;;7.47;;
22223;SDS011;11281;52.194;21.006;2023-04-15T05:53:34;8.43;;;6.72;;
22223;SDS011;11281;52.194;21.006;2023-04-15T05:57:56;11.30;;;7.70;;
22223;SDS011;11281;52.194;21.006;2023-04-15T06:02:18;13.55;;;7.13;;
22223;SDS011;11281;52.194;21.006;2023-04-15T06:06:39;8.60;;;6.15;;
22223;SDS011;11281;52.194;21.006;2023-04-15T06:11:01;11.43;;;6.85;;
22223;SDS011;11281;52.194;21.006;2023-04-15T06:15:23;15.05;;;7.63;;
22223;SDS011;11281;52.194;21.006;2023-04-15T06:19:45;14.02;;;7.53;;
22223;SDS011;11281;52.194;21.006;2023-04-15T06:24:07;14.25;;;7.68;;
22223;SDS011;11281;52.194;21.006;2023-04-15T06:28:29;10.48;;;7.30;;
22223;SDS011;11281;52.194;21.006;2023-04-15T06:32:51;10.43;;;7.32;;
22223;SDS011;11281;52.194;21.006;2023-04-15T06:37:13;16.23;;;7.68;;
22223;SDS011;11281;52.194;21.006;2023-04-15T06:41:36;14.80;;;6.75;;
22223;SDS011;11281;52.194;21.006;2023-04-15T06:45:57;11.05;;;6.90;;
22223;SDS011;11281;52.194;21.006;2023-04-15T06:50:19;17.10;;;7.78;;
22223;SDS011;11281;52.194;21.006;2023-04-15T06:54:41;11.77;;;7.13;;
22223;SDS011;11281;52.194;21.006;2023-04-15T06:59:03;9.25;;;6.88;;
22223;SDS011;11281;52.194;21.006;2023-04-15T07:03:25;11.52;;;6.93;;
22223;SDS011;11281;52.194;21.006;2023-04-15T07:07:47;9.75;;;6.80;;
22223;SDS011;11281;52.194;21.006;2023-04-15T07:12:08;10.07;;;6.72;;
22223;SDS011;11281;52.194;21.006;2023-04-15T07:16:30;12.30;;;6.57;;
22223;SDS011;11281;52.194;21.006;2023-04-15T07:20:52;9.63;;;6.45;;
22223;SDS011;11281;52.194;21.006;2023-04-15T07:25:13;9.95;;;7.07;;
22223;SDS011;11281;52.194;21.006;2023-04-15T07:29:36;7.80;;;5.47;;
22223;SDS011;11281;52.194;21.006;2023-04-15T07:33:57;8.70;;;6.07;;
22223;SDS011;11281;52.194;21.006;2023-04-15T07:38:20;8.15;;;5.95;;
22223;SDS011;11281;52.194;21.006;2023-04-15T07:42:43;11.60;;;6.70;;
22223;SDS011;11281;52.194;21.006;2023-04-15T07:47:04;9.63;;;6.68;;
22223;SDS011;11281;52.194;21.006;2023-04-15T07:51:26;8.23;;;5.55;;
22223;SDS011;11281;52.194;21.006;2023-04-15T07:55:49;9.30;;;6.20;;
22223;SDS011;11281;52.194;21.006;2023-04-15T08:00:11;13.02;;;6.13;;
22223;SDS011;11281;52.194;21.006;2023-04-15T08:04:33;8.75;;;5.35;;
22223;SDS011;11281;52.194;21.006;2023-04-15T08:08:55;8.30;;;5.68;;
22223;SDS011;11281;52.194;21.006;2023-04-15T08:13:17;7.13;;;5.05;;
22223;SDS011;11281;52.194;21.006;2023-04-15T08:17:39;6.28;;;4.95;;
22223;SDS011;11281;52.194;21.006;2023-04-15T08:22:00;10.70;;;6.13;;
22223;SDS011;11281;52.194;21.006;2023-04-15T08:26:22;9.02;;;5.65;;
22223;SDS011;11281;52.194;21.006;2023-04-15T08:30:44;7.90;;;4.88;;
22223;SDS011;11281;52.194;21.006;2023-04-15T08:35:06;7.60;;;5.32;;
22223;SDS011;11281;52.194;21.006;2023-04-15T08:39:29;6.78;;;5.18;;
22223;SDS011;11281;52.194;21.006;2023-04-15T08:43:57;7.60;;;4.90;;
22223;SDS011;11281;52.194;21.006;2023-04-15T08:48:27;8.18;;;5.38;;
22223;SDS011;11281;52.194;21.006;2023-04-15T08:52:52;7.30;;;5.03;;
22223;SDS011;11281;52.194;21.006;2023-04-15T08:57:15;7.72;;;5.85;;
22223;SDS011;11281;52.194;21.006;2023-04-15T09:01:37;7.68;;;4.70;;
22223;SDS011;11281;52.194;21.006;2023-04-15T09:06:00;9.70;;;5.82;;
22223;SDS011;11281;52.194;21.006;2023-04-15T09:10:26;6.30;;;4.40;;
22223;SDS011;11281;52.194;21.006;2023-04-15T09:14:48;6.95;;;5.05;;
22223;SDS011;11281;52.194;21.006;2023-04-15T09:19:20;5.97;;;4.68;;
22223;SDS011;11281;52.194;21.006;2023-04-15T09:23:56;5.45;;;4.28;;
22223;SDS011;11281;52.194;21.006;2023-04-15T09:28:24;4.40;;;4.00;;
22223;SDS011;11281;52.194;21.006;2023-04-15T09:32:49;5.85;;;4.22;;
22223;SDS011;11281;52.194;21.006;2023-04-15T09:37:13;4.95;;;3.85;;
22223;SDS011;11281;52.194;21.006;2023-04-15T09:41:38;5.05;;;4.30;;
22223;SDS011;11281;52.194;21.006;2023-04-15T09:46:00;4.10;;;3.65;;
22223;SDS011;11281;52.194;21.006;2023-04-15T09:50:22;4.05;;;3.50;;
22223;SDS011;11281;52.194;21.006;2023-04-15T09:54:50;6.47;;;4.50;;
22223;SDS011;11281;52.194;21.006;2023-04-15T09:59:17;8.27;;;5.32;;
22223;SDS011;11281;52.194;21.006;2023-04-15T10:03:39;6.43;;;5.00;;
22223;SDS011;11281;52.194;21.006;2023-04-15T10:08:02;6.55;;;4.38;;
22223;SDS011;11281;52.194;21.006;2023-04-15T10:12:25;7.75;;;4.85;;
22223;SDS011;11281;52.194;21.006;2023-04-15T10:16:48;7.28;;;4.75;;
22223;SDS011;11281;52.194;21.006;2023-04-15T10:21:11;4.10;;;3.72;;
22223;SDS011;11281;52.194;21.006;2023-04-15T10:25:35;4.93;;;3.83;;
22223;SDS011;11281;52.194;21.006;2023-04-15T10:29:59;5.55;;;3.47;;
22223;SDS011;11281;52.194;21.006;2023-04-15T10:34:21;4.90;;;3.78;;
22223;SDS011;11281;52.194;21.006;2023-04-15T10:38:45;4.55;;;3.40;;
22223;SDS011;11281;52.194;21.006;2023-04-15T10:43:07;5.30;;;3.50;;
22223;SDS011;11281;52.194;21.006;2023-04-15T10:47:50;3.95;;;3.40;;
22223;SDS011;11281;52.194;21.006;2023-04-15T10:52:16;3.38;;;3.08;;
22223;SDS011;11281;52.194;21.006;2023-04-15T10:56:43;5.97;;;3.17;;
22223;SDS011;11281;52.194;21.006;2023-04-15T11:01:05;3.40;;;2.95;;
22223;SDS011;11281;52.194;21.006;2023-04-15T11:14:38;5.75;;;3.63;;
22223;SDS011;11281;52.194;21.006;2023-04-15T11:19:01;5.88;;;4.10;;
22223;SDS011;11281;52.194;21.006;2023-04-15T11:27:59;5.38;;;3.47;;
22223;SDS011;11281;52.194;21.006;2023-04-15T11:32:23;4.25;;;3.40;;
22223;SDS011;11281;52.194;21.006;2023-04-15T11:36:45;3.42;;;2.92;;
22223;SDS011;11281;52.194;21.006;2023-04-15T11:41:07;3.42;;;2.55;;
22223;SDS011;11281;52.194;21.006;2023-04-15T11:45:29;2.97;;;2.63;;
22223;SDS011;11281;52.194;21.006;2023-04-15T11:49:50;3.30;;;2.90;;
22223;SDS011;11281;52.194;21.006;2023-04-15T11:54:17;2.90;;;2.60;;
22223;SDS011;11281;52.194;21.006;2023-04-15T11:58:39;3.65;;;2.80;;
22223;SDS011;11281;52.194;21.006;2023-04-15T12:03:12;3.15;;;2.70;;
22223;SDS011;11281;52.194;21.006;2023-04-15T12:12:20;2.50;;;2.30;;
22223;SDS011;11281;52.194;21.006;2023-04-15T12:16:45;3.83;;;2.95;;
22223;SDS011;11281;52.194;21.006;2023-04-15T12:21:10;3.83;;;2.75;;
22223;SDS011;11281;52.194;21.006;2023-04-15T12:25:35;3.33;;;2.65;;
22223;SDS011;11281;52.194;21.006;2023-04-15T12:30:03;3.53;;;2.60;;
22223;SDS011;11281;52.194;21.006;2023-04-15T12:34:27;2.90;;;2.60;;
22223;SDS011;11281;52.194;21.006;2023-04-15T12:38:56;2.67;;;2.33;;
22223;SDS011;11281;52.194;21.006;2023-04-15T12:43:18;2.88;;;2.53;;
22223;SDS011;11281;52.194;21.006;2023-04-15T12:47:40;2.78;;;2.47;;
22223;SDS011;11281;52.194;21.006;2023-04-15T12:52:01;4.30;;;2.25;;
22223;SDS011;11281;52.194;21.006;2023-04-15T12:56:24;2.53;;;2.33;;
22223;SDS011;11281;52.194;21.006;2023-04-15T13:00:47;2.15;;;1.95;;
22223;SDS011;11281;52.194;21.006;2023-04-15T13:05:09;2.08;;;1.90;;
22223;SDS011;11281;52.194;21.006;2023-04-15T13:09:31;2.25;;;2.00;;
22223;SDS011;11281;52.194;21.006;2023-04-15T13:13:53;2.47;;;2.05;;
22223;SDS011;11281;52.194;21.006;2023-04-15T13:18:15;2.30;;;1.77;;
22223;SDS011;11281;52.194;21.006;2023-04-15T13:22:37;1.85;;;1.70;;
22223;SDS011;11281;52.194;21.006;2023-04-15T13:26:59;3.42;;;2.35;;
22223;SDS011;11281;52.194;21.006;2023-04-15T13:31:20;3.60;;;2.03;;
22223;SDS011;11281;52.194;21.006;2023-04-15T13:35:42;1.85;;;1.75;;
22223;SDS011;11281;52.194;21.006;2023-04-15T13:40:04;2.22;;;1.67;;
22223;SDS011;11281;52.194;21.006;2023-04-15T13:44:27;2.10;;;1.77;;
22223;SDS011;11281;52.194;21.006;2023-04-15T13:48:49;2.08;;;1.88;;
22223;SDS011;11281;52.194;21.006;2023-04-15T13:53:11;3.25;;;1.85;;
22223;SDS011;11281;52.194;21.006;2023-04-15T13:57:32;1.55;;;1.45;;
22223;SDS011;11281;52.194;21.006;2023-04-15T14:01:54;1.80;;;1.70;;
22223;SDS011;11281;52.194;21.006;2023-04-15T14:06:16;2.55;;;1.73;;
22223;SDS011;11281;52.194;21.006;2023-04-15T14:10:38;1.85;;;1.75;;
22223;SDS011;11281;52.194;21.006;2023-04-15T14:15:01;1.77;;;1.63;;
22223;SDS011;11281;52.194;21.006;2023-04-15T14:19:23;2.65;;;1.60;;
22223;SDS011;11281;52.194;21.006;2023-04-15T14:23:45;1.95;;;1.50;;
22223;SDS011;11281;52.194;21.006;2023-04-15T14:28:07;1.90;;;1.70;;
22223;SDS011;11281;52.194;21.006;2023-04-15T14:32:28;3.90;;;2.00;;
22223;SDS011;11281;52.194;21.006;2023-04-15T14:36:50;2.80;;;1.92;;
22223;SDS011;11281;52.194;21.006;2023-04-15T14:41:13;2.83;;;2.30;;
22223;SDS011;11281;52.194;21.006;2023-04-15T14:45:36;2.42;;;2.05;;
22223;SDS011;11281;52.194;21.006;2023-04-15T14:49:58;20.63;;;7.43;;
22223;SDS011;11281;52.194;21.006;2023-04-15T14:54:20;4.45;;;2.95;;
22223;SDS011;11281;52.194;21.006;2023-04-15T14:58:42;5.47;;;3.10;;
22223;SDS011;11281;52.194;21.006;2023-04-15T15:03:03;7.82;;;3.75;;
22223;SDS011;11281;52.194;21.006;2023-04-15T15:07:32;15.60;;;7.05;;
22223;SDS011;11281;52.194;21.006;2023-04-15T15:11:54;13.80;;;6.72;;
22223;SDS011;11281;52.194;21.006;2023-04-15T15:16:16;7.15;;;3.42;;
22223;SDS011;11281;52.194;21.006;2023-04-15T15:20:38;9.52;;;4.18;;
22223;SDS011;11281;52.194;21.006;2023-04-15T15:25:00;8.30;;;4.93;;
22223;SDS011;11281;52.194;21.006;2023-04-15T15:29:22;6.15;;;3.58;;
22223;SDS011;11281;52.194;21.006;2023-04-15T15:33:44;4.90;;;3.30;;
22223;SDS011;11281;52.194;21.006;2023-04-15T15:38:05;5.40;;;3.30;;
22223;SDS011;11281;52.194;21.006;2023-04-15T15:42:29;5.85;;;3.25;;
22223;SDS011;11281;52.194;21.006;2023-04-15T15:46:51;5.05;;;2.80;;
22223;SDS011;11281;52.194;21.006;2023-04-15T15:51:13;4.50;;;2.30;;
22223;SDS011;11281;52.194;21.006;2023-04-15T15:55:35;4.38;;;3.35;;
22223;SDS011;11281;52.194;21.006;2023-04-15T15:59:57;5.40;;;3.03;;
22223;SDS011;11281;52.194;21.006;2023-04-15T16:04:18;5.43;;;3.42;;
22223;SDS011;11281;52.194;21.006;2023-04-15T16:08:40;3.17;;;2.30;;
22223;SDS011;11281;52.194;21.006;2023-04-15T16:13:02;3.55;;;2.47;;
22223;SDS011;11281;52.194;21.006;2023-04-15T16:17:24;3.90;;;2.78;;
22223;SDS011;11281;52.194;21.006;2023-04-15T16:21:45;3.72;;;2.63;;
22223;SDS011;11281;52.194;21.006;2023-04-15T16:26:07;3.65;;;2.47;;
22223;SDS011;11281;52.194;21.006;2023-04-15T16:30:29;3.03;;;2.15;;
22223;SDS011;11281;52.194;21.006;2023-04-15T16:34:51;4.32;;;2.55;;
22223;SDS011;11281;52.194;21.006;2023-04-15T16:39:13;2.55;;;2.10;;
22223;SDS011;11281;52.194;21.006;2023-04-15T16:43:35;3.85;;;2.45;;
22223;SDS011;11281;52.194;21.006;2023-04-15T16:47:56;4.65;;;2.85;;
22223;SDS011;11281;52.194;21.006;2023-04-15T16:52:18;4.30;;;2.95;;
22223;SDS011;11281;52.194;21.006;2023-04-15T16:56:40;9.70;;;4.55;;
22223;SDS011;11281;52.194;21.006;2023-04-15T17:01:02;6.88;;;4.93;;
22223;SDS011;11281;52.194;21.006;2023-04-15T17:05:23;6.75;;;3.65;;
22223;SDS011;11281;52.194;21.006;2023-04-15T17:09:47;3.83;;;2.65;;
22223;SDS011;11281;52.194;21.006;2023-04-15T17:14:09;6.40;;;2.70;;
22223;SDS011;11281;52.194;21.006;2023-04-15T17:18:30;4.75;;;2.63;;
22223;SDS011;11281;52.194;21.006;2023-04-15T17:22:52;4.13;;;2.97;;
22223;SDS011;11281;52.194;21.006;2023-04-15T17:27:14;6.85;;;3.67;;
22223;SDS011;11281;52.194;21.006;2023-04-15T17:31:36;4.68;;;3.20;;
22223;SDS011;11281;52.194;21.006;2023-04-15T17:35:57;6.63;;;4.07;;
22223;SDS011;11281;52.194;21.006;2023-04-15T17:40:19;5.10;;;3.42;;
22223;SDS011;11281;52.194;21.006;2023-04-15T17:44:41;7.45;;;3.75;;
22223;SDS011;11281;52.194;21.006;2023-04-15T17:49:03;5.90;;;3.53;;
22223;SDS011;11281;52.194;21.006;2023-04-15T17:53:25;8.55;;;3.70;;
22223;SDS011;11281;52.194;21.006;2023-04-15T17:57:47;6.15;;;4.20;;
22223;SDS011;11281;52.194;21.006;2023-04-15T18:02:09;7.20;;;3.67;;
22223;SDS011;11281;52.194;21.006;2023-04-15T18:06:31;9.32;;;4.85;;
22223;SDS011;11281;52.194;21.006;2023-04-15T18:10:53;8.85;;;4.05;;
22223;SDS011;11281;52.194;21.006;2023-04-15T18:15:14;7.55;;;4.15;;
22223;SDS011;11281;52.194;21.006;2023-04-15T18:19:36;4.90;;;3.80;;
22223;SDS011;11281;52.194;21.006;2023-04-15T18:23:58;6.07;;;4.13;;
22223;SDS011;11281;52.194;21.006;2023-04-15T18:28:19;5.45;;;3.83;;
22223;SDS011;11281;52.194;21.006;2023-04-15T18:32:42;5.22;;;3.58;;
22223;SDS011;11281;52.194;21.006;2023-04-15T18:37:04;4.93;;;3.65;;
22223;SDS011;11281;52.194;21.006;2023-04-15T18:41:26;4.63;;;3.38;;
22223;SDS011;11281;52.194;21.006;2023-04-15T18:45:47;5.22;;;3.05;;
22223;SDS011;11281;52.194;21.006;2023-04-15T18:50:12;4.57;;;3.03;;
22223;SDS011;11281;52.194;21.006;2023-04-15T18:54:33;5.05;;;3.72;;
22223;SDS011;11281;52.194;21.006;2023-04-15T18:58:56;4.57;;;3.35;;
22223;SDS011;11281;52.194;21.006;2023-04-15T19:03:18;5.60;;;3.53;;
22223;SDS011;11281;52.194;21.006;2023-04-15T19:07:40;5.05;;;3.47;;
22223;SDS011;11281;52.194;21.006;2023-04-15T19:12:02;4.90;;;3.55;;
22223;SDS011;11281;52.194;21.006;2023-04-15T19:16:24;4.70;;;3.80;;
22223;SDS011;11281;52.194;21.006;2023-04-15T19:20:45;6.50;;;3.50;;
22223;SDS011;11281;52.194;21.006;2023-04-15T19:25:10;5.65;;;3.72;;
22223;SDS011;11281;52.194;21.006;2023-04-15T19:29:32;7.65;;;3.25;;
22223;SDS011;11281;52.194;21.006;2023-04-15T19:33:54;6.63;;;3.58;;
22223;SDS011;11281;52.194;21.006;2023-04-15T19:38:15;5.35;;;4.00;;
22223;SDS011;11281;52.194;21.006;2023-04-15T19:42:37;4.63;;;3.35;;
22223;SDS011;11281;52.194;21.006;2023-04-15T19:46:59;5.45;;;3.50;;
22223;SDS011;11281;52.194;21.006;2023-04-15T19:51:21;5.38;;;4.15;;
22223;SDS011;11281;52.194;21.006;2023-04-15T19:55:43;4.00;;;3.10;;
22223;SDS011;11281;52.194;21.006;2023-04-15T20:00:05;4.55;;;3.08;;
22223;SDS011;11281;52.194;21.006;2023-04-15T20:04:29;5.38;;;2.83;;
22223;SDS011;11281;52.194;21.006;2023-04-15T20:08:51;3.22;;;2.83;;
22223;SDS011;11281;52.194;21.006;2023-04-15T20:13:12;3.58;;;2.45;;
22223;SDS011;11281;52.194;21.006;2023-04-15T20:17:34;3.47;;;2.53;;
22223;SDS011;11281;52.194;21.006;2023-04-15T20:21:57;6.28;;;3.20;;
22223;SDS011;11281;52.194;21.006;2023-04-15T20:26:18;4.53;;;2.90;;
22223;SDS011;11281;52.194;21.006;2023-04-15T20:30:41;4.40;;;2.95;;
22223;SDS011;11281;52.194;21.006;2023-04-15T20:35:03;3.78;;;2.72;;
22223;SDS011;11281;52.194;21.006;2023-04-15T20:39:26;3.45;;;3.08;;
22223;SDS011;11281;52.194;21.006;2023-04-15T20:43:49;3.70;;;2.90;;
22223;SDS011;11281;52.194;21.006;2023-04-15T20:48:11;3.80;;;3.03;;
22223;SDS011;11281;52.194;21.006;2023-04-15T20:52:33;6.47;;;3.13;;
22223;SDS011;11281;52.194;21.006;2023-04-15T20:56:55;4.40;;;3.03;;
22223;SDS011;11281;52.194;21.006;2023-04-15T21:01:17;4.82;;;2.70;;
22223;SDS011;11281;52.194;21.006;2023-04-15T21:05:40;3.63;;;2.78;;
22223;SDS011;11281;52.194;21.006;2023-04-15T21:10:01;4.93;;;2.83;;
22223;SDS011;11281;52.194;21.006;2023-04-15T21:14:23;4.95;;;3.03;;
22223;SDS011;11281;52.194;21.006;2023-04-15T21:18:45;3.80;;;3.08;;
22223;SDS011;11281;52.194;21.006;2023-04-15T21:23:07;3.72;;;2.88;;
22223;SDS011;11281;52.194;21.006;2023-04-15T21:27:28;3.58;;;2.78;;
22223;SDS011;11281;52.194;21.006;2023-04-15T21:31:50;5.00;;;3.65;;
22223;SDS011;11281;52.194;21.006;2023-04-15T21:36:12;3.40;;;2.88;;
22223;SDS011;11281;52.194;21.006;2023-04-15T21:40:34;5.53;;;3.08;;
22223;SDS011;11281;52.194;21.006;2023-04-15T21:45:00;3.70;;;2.78;;
22223;SDS011;11281;52.194;21.006;2023-04-15T21:49:21;2.65;;;2.45;;
22223;SDS011;11281;52.194;21.006;2023-04-15T21:53:43;3.58;;;2.80;;
22223;SDS011;11281;52.194;21.006;2023-04-15T21:58:05;5.35;;;3.17;;
22223;SDS011;11281;52.194;21.006;2023-04-15T22:02:27;3.35;;;2.72;;
22223;SDS011;11281;52.194;21.006;2023-04-15T22:06:48;4.78;;;3.15;;
22223;SDS011;11281;52.194;21.006;2023-04-15T22:11:16;3.70;;;2.95;;
22223;SDS011;11281;52.194;21.006;2023-04-15T22:15:46;5.50;;;3.58;;
22223;SDS011;11281;52.194;21.006;2023-04-15T22:20:08;4.40;;;2.72;;
22223;SDS011;11281;52.194;21.006;2023-04-15T22:24:30;3.67;;;3.20;;
22223;SDS011;11281;52.194;21.006;2023-04-15T22:28:52;7.30;;;3.83;;
22223;SDS011;11281;52.194;21.006;2023-04-15T22:33:13;8.05;;;3.80;;
22223;SDS011;11281;52.194;21.006;2023-04-15T22:37:35;5.15;;;3.75;;
22223;SDS011;11281;52.194;21.006;2023-04-15T22:41:57;6.25;;;3.67;;
22223;SDS011;11281;52.194;21.006;2023-04-15T22:46:19;4.70;;;3.58;;
22223;SDS011;11281;52.194;21.006;2023-04-15T22:50:40;4.25;;;3.47;;
22223;SDS011;11281;52.194;21.006;2023-04-15T22:55:03;4.72;;;3.40;;
22223;SDS011;11281;52.194;21.006;2023-04-15T22:59:26;5.30;;;3.50;;
22223;SDS011;11281;52.194;21.006;2023-04-15T23:03:48;3.92;;;2.88;;
22223;SDS011;11281;52.194;21.006;2023-04-15T23:08:11;3.65;;;2.70;;
22223;SDS011;11281;52.194;21.006;2023-04-15T23:12:33;4.75;;;2.50;;
22223;SDS011;11281;52.194;21.006;2023-04-15T23:16:55;4.85;;;2.50;;
22223;SDS011;11281;52.194;21.006;2023-04-15T23:21:18;3.60;;;3.05;;
22223;SDS011;11281;52.194;21.006;2023-04-15T23:25:40;3.33;;;2.63;;
22223;SDS011;11281;52.194;21.006;2023-04-15T23:30:02;3.15;;;2.78;;
22223;SDS011;11281;52.194;21.006;2023-04-15T23:34:24;3.83;;;3.00;;
22223;SDS011;11281;52.194;21.006;2023-04-15T23:38:46;2.70;;;2.45;;
22223;SDS011;11281;52.194;21.006;2023-04-15T23:43:08;3.47;;;2.72;;
22223;SDS011;11281;52.194;21.006;2023-04-15T23:47:30;5.57;;;2.88;;
22223;SDS011;11281;52.194;21.006;2023-04-15T23:51:52;4.47;;;2.92;;
22223;SDS011;11281;52.194;21.006;2023-04-15T23:56:13;3.33;;;2.75;;
